createdAt,value
2018-12-19T00:00:38.675Z,27.00
2018-12-19T00:01:41.516Z,30.50
2018-12-19T00:02:44.437Z,26.50
2018-12-19T00:03:47.277Z,28.00
2018-12-19T00:04:50.162Z,29.50
2018-12-19T00:05:53.051Z,26.50
2018-12-19T00:06:58.133Z,27.50
2018-12-19T00:08:00.882Z,26.00
2018-12-19T00:09:05.246Z,28.00
2018-12-19T00:10:08.443Z,27.00
2018-12-19T00:11:11.889Z,29.00
2018-12-19T00:12:14.627Z,23.00
2018-12-19T00:13:20.758Z,31.50
2018-12-19T00:14:24.959Z,29.00
2018-12-19T00:15:28.257Z,26.50
2018-12-19T00:16:31.431Z,27.00
2018-12-19T00:17:34.582Z,28.00
2018-12-19T00:18:39.000Z,28.00
2018-12-19T00:19:45.075Z,24.50
2018-12-19T00:20:50.659Z,31.50
2018-12-19T00:21:53.643Z,26.50
2018-12-19T00:22:56.395Z,25.50
2018-12-19T00:23:59.137Z,29.00
2018-12-19T00:25:02.554Z,26.00
2018-12-19T00:26:05.786Z,37.00
2018-12-19T00:27:08.676Z,35.00
2018-12-19T00:28:11.457Z,36.00
2018-12-19T00:29:14.360Z,26.00
2018-12-19T00:30:18.447Z,30.50
2018-12-19T00:36:53.909Z,27.00
2018-12-19T00:37:56.785Z,28.00
2018-12-19T00:39:00.375Z,24.00
2018-12-19T00:40:03.193Z,32.00
2018-12-19T00:41:06.585Z,31.00
2018-12-19T00:42:11.596Z,30.50
2018-12-19T00:43:15.910Z,32.00
2018-12-19T00:44:20.699Z,28.00
2018-12-19T00:45:23.505Z,27.50
2018-12-19T00:46:26.274Z,32.00
2018-12-19T00:47:29.672Z,28.00
2018-12-19T00:48:32.981Z,33.00
2018-12-19T00:49:37.433Z,33.50
2018-12-19T00:50:40.336Z,30.50
2018-12-19T00:51:45.382Z,29.00
2018-12-19T00:52:48.307Z,27.00
2018-12-19T00:53:51.539Z,34.00
2018-12-19T00:54:55.212Z,30.50
2018-12-19T00:56:00.188Z,31.50
2018-12-19T00:57:03.294Z,28.00
2018-12-19T00:58:06.351Z,27.50
2018-12-19T00:59:09.994Z,28.50
2018-12-19T01:00:14.579Z,22.00
2018-12-19T01:01:18.029Z,21.00
2018-12-19T01:02:21.091Z,34.00
2018-12-19T01:03:24.338Z,30.00
2018-12-19T01:04:28.181Z,27.50
2018-12-19T01:05:31.375Z,25.50
2018-12-19T01:06:34.432Z,28.50
2018-12-19T01:07:37.723Z,25.00
2018-12-19T01:08:40.857Z,28.00
2018-12-19T01:09:44.368Z,28.50
2018-12-19T01:10:47.338Z,38.50
2018-12-19T01:11:50.184Z,24.00
2018-12-19T01:12:53.609Z,29.00
2018-12-19T01:13:56.488Z,22.50
2018-12-19T01:15:00.318Z,24.50
2018-12-19T01:16:03.129Z,30.50
2018-12-19T01:17:06.991Z,39.00
2018-12-19T01:18:09.809Z,25.00
2018-12-19T01:19:12.886Z,34.00
2018-12-19T01:20:15.650Z,33.50
2018-12-19T01:21:18.379Z,32.00
2018-12-19T01:22:21.149Z,34.50
2018-12-19T01:23:25.111Z,32.50
2018-12-19T01:24:29.277Z,30.50
2018-12-19T01:25:32.019Z,27.50
2018-12-19T01:26:34.783Z,35.00
2018-12-19T01:27:37.505Z,31.50
2018-12-19T01:28:40.401Z,25.00
2018-12-19T01:29:43.121Z,26.50
2018-12-19T01:30:46.326Z,32.00
2018-12-19T01:31:49.092Z,26.00
2018-12-19T01:32:51.840Z,26.00
2018-12-19T01:33:54.589Z,22.50
2018-12-19T01:34:57.317Z,23.00
2018-12-19T01:36:00.801Z,27.50
2018-12-19T01:37:03.541Z,26.00
2018-12-19T01:38:06.481Z,30.00
2018-12-19T01:39:09.242Z,31.50
2018-12-19T01:40:12.000Z,24.00
2018-12-19T01:41:14.783Z,29.00
2018-12-19T01:42:18.040Z,25.00
2018-12-19T01:43:22.221Z,21.50
2018-12-19T01:44:24.975Z,21.50
2018-12-19T01:45:28.302Z,27.00
2018-12-19T01:46:31.082Z,25.00
2018-12-19T01:47:34.340Z,34.50
2018-12-19T01:50:52.752Z,32.00
2018-12-19T01:51:55.512Z,39.50
2018-12-19T01:52:58.451Z,28.50
2018-12-19T01:54:01.884Z,34.50
2018-12-19T01:55:05.191Z,29.00
2018-12-19T01:56:08.628Z,33.50
2018-12-19T01:57:11.379Z,28.50
2018-12-19T01:58:14.137Z,30.00
2018-12-19T01:59:16.869Z,21.50
2018-12-19T02:00:22.154Z,30.50
2018-12-19T02:01:24.935Z,31.00
2018-12-19T02:02:27.871Z,34.50
2018-12-19T02:03:30.855Z,26.00
2018-12-19T02:04:33.709Z,29.50
2018-12-19T02:05:37.268Z,32.50
2018-12-19T02:06:40.406Z,29.50
2018-12-19T02:07:43.143Z,34.50
2018-12-19T02:08:45.898Z,26.00
2018-12-19T02:09:48.685Z,33.50
2018-12-19T02:10:51.442Z,40.00
2018-12-19T02:11:54.317Z,31.00
2018-12-19T02:12:57.409Z,38.00
2018-12-19T02:14:00.166Z,36.50
2018-12-19T02:15:02.886Z,29.00
2018-12-19T02:16:05.666Z,25.50
2018-12-19T02:17:08.397Z,23.00
2018-12-19T02:18:11.194Z,31.50
2018-12-19T02:19:14.233Z,31.50
2018-12-19T02:20:16.989Z,26.50
2018-12-19T02:21:19.775Z,28.50
2018-12-19T02:22:22.509Z,31.50
2018-12-19T02:23:25.296Z,34.00
2018-12-19T02:24:28.197Z,29.00
2018-12-19T02:25:31.284Z,30.50
2018-12-19T02:26:34.097Z,29.50
2018-12-19T02:27:36.944Z,35.00
2018-12-19T02:28:39.704Z,31.50
2018-12-19T02:29:42.669Z,40.00
2018-12-19T02:30:45.425Z,34.50
2018-12-19T02:31:50.224Z,31.00
2018-12-19T02:32:52.981Z,27.50
2018-12-19T02:33:55.905Z,31.00
2018-12-19T02:34:59.858Z,26.00
2018-12-19T02:36:02.721Z,28.50
2018-12-19T02:37:05.577Z,25.50
2018-12-19T02:38:08.669Z,36.50
2018-12-19T02:39:11.479Z,22.00
2018-12-19T02:40:14.418Z,34.50
2018-12-19T02:41:17.298Z,34.50
2018-12-19T02:42:20.569Z,28.00
2018-12-19T02:43:23.383Z,30.00
2018-12-19T02:44:26.473Z,25.50
2018-12-19T02:45:29.269Z,31.00
2018-12-19T02:46:32.080Z,32.00
2018-12-19T02:47:34.877Z,28.00
2018-12-19T02:48:37.692Z,26.00
2018-12-19T02:49:40.466Z,27.50
2018-12-19T02:50:43.242Z,28.50
2018-12-19T02:51:48.237Z,30.50
2018-12-19T02:52:51.055Z,26.00
2018-12-19T02:53:54.262Z,27.00
2018-12-19T02:54:58.076Z,30.00
2018-12-19T02:56:00.907Z,25.50
2018-12-19T02:57:03.998Z,34.00
2018-12-19T02:58:06.768Z,39.50
2018-12-19T02:59:09.715Z,26.00
2018-12-19T03:00:13.028Z,28.00
2018-12-19T03:01:16.006Z,35.00
2018-12-19T03:02:18.821Z,25.50
2018-12-19T03:03:21.906Z,31.00
2018-12-19T03:04:24.708Z,30.00
2018-12-19T03:05:27.556Z,32.00
2018-12-19T03:06:30.320Z,26.00
2018-12-19T03:07:33.146Z,33.00
2018-12-19T03:08:35.949Z,27.50
2018-12-19T03:09:42.870Z,35.00
2018-12-19T03:10:45.615Z,26.00
2018-12-19T03:11:48.439Z,31.00
2018-12-19T03:12:51.252Z,32.00
2018-12-19T03:13:56.222Z,27.50
2018-12-19T03:14:59.019Z,26.00
2018-12-19T03:16:03.144Z,31.00
2018-12-19T03:17:06.919Z,24.00
2018-12-19T03:18:09.705Z,28.00
2018-12-19T03:19:12.493Z,25.00
2018-12-19T03:20:15.290Z,43.50
2018-12-19T03:21:19.663Z,29.50
2018-12-19T03:22:23.538Z,33.50
2018-12-19T03:23:26.389Z,33.00
2018-12-19T03:24:29.202Z,31.00
2018-12-19T03:25:32.006Z,26.00
2018-12-19T03:26:34.797Z,33.00
2018-12-19T03:27:38.548Z,33.00
2018-12-19T03:28:41.725Z,28.00
2018-12-19T03:29:44.537Z,30.00
2018-12-19T03:30:47.935Z,24.00
2018-12-19T03:31:50.735Z,30.00
2018-12-19T03:32:54.210Z,33.00
2018-12-19T03:33:57.591Z,28.50
2018-12-19T03:35:00.785Z,23.00
2018-12-19T03:36:03.606Z,25.00
2018-12-19T03:37:06.422Z,28.50
2018-12-19T03:38:11.252Z,27.00
2018-12-19T03:39:14.822Z,28.00
2018-12-19T03:40:17.593Z,26.00
2018-12-19T03:41:20.754Z,29.00
2018-12-19T03:42:23.607Z,25.50
2018-12-19T03:43:27.355Z,31.50
2018-12-19T03:44:30.903Z,34.00
2018-12-19T03:45:33.967Z,34.00
2018-12-19T03:46:36.734Z,22.00
2018-12-19T03:48:55.184Z,31.00
2018-12-19T03:49:58.216Z,28.00
2018-12-19T03:51:01.069Z,28.50
2018-12-19T03:52:03.930Z,26.00
2018-12-19T03:53:06.738Z,27.50
2018-12-19T03:54:10.051Z,34.50
2018-12-19T03:55:12.828Z,32.00
2018-12-19T03:56:15.812Z,30.00
2018-12-19T03:57:18.582Z,29.00
2018-12-19T03:58:21.402Z,30.50
2018-12-19T03:59:24.192Z,31.50
2018-12-19T04:00:27.347Z,28.00
2018-12-19T04:01:30.148Z,25.50
2018-12-19T04:02:32.940Z,29.00
2018-12-19T04:03:35.719Z,24.00
2018-12-19T04:04:39.384Z,27.50
2018-12-19T04:05:42.263Z,25.00
2018-12-19T04:06:45.474Z,31.00
2018-12-19T04:07:50.102Z,38.00
2018-12-19T04:08:52.867Z,27.50
2018-12-19T04:09:58.063Z,30.50
2018-12-19T04:11:01.188Z,29.00
2018-12-19T04:12:04.015Z,27.50
2018-12-19T04:13:07.304Z,28.00
2018-12-19T04:14:10.131Z,24.50
2018-12-19T04:15:12.962Z,28.00
2018-12-19T04:16:15.732Z,27.00
2018-12-19T04:17:18.519Z,23.50
2018-12-19T04:18:21.326Z,26.50
2018-12-19T04:19:24.602Z,29.00
2018-12-19T04:20:27.429Z,24.00
2018-12-19T04:21:30.266Z,28.50
2018-12-19T04:22:33.092Z,28.00
2018-12-19T04:23:35.908Z,22.00
2018-12-19T04:24:38.672Z,34.00
2018-12-19T04:25:41.723Z,28.50
2018-12-19T04:26:44.507Z,36.00
2018-12-19T04:27:47.285Z,25.00
2018-12-19T04:28:50.388Z,26.50
2018-12-19T04:29:53.267Z,26.00
2018-12-19T04:30:56.083Z,26.50
2018-12-19T04:31:59.309Z,26.50
2018-12-19T04:33:02.191Z,30.00
2018-12-19T04:34:04.984Z,25.00
2018-12-19T04:35:07.801Z,25.50
2018-12-19T04:36:10.613Z,22.00
2018-12-19T04:37:14.585Z,28.00
2018-12-19T04:38:17.965Z,29.00
2018-12-19T04:39:20.813Z,28.00
2018-12-19T04:40:23.583Z,34.50
2018-12-19T04:41:26.379Z,37.00
2018-12-19T04:42:29.136Z,32.00
2018-12-19T04:43:31.964Z,24.50
2018-12-19T04:44:35.136Z,24.50
2018-12-19T04:45:38.927Z,27.50
2018-12-19T04:46:41.742Z,29.50
2018-12-19T04:47:44.566Z,22.50
2018-12-19T04:48:47.355Z,28.50
2018-12-19T04:49:50.157Z,21.50
2018-12-19T04:50:53.372Z,22.50
2018-12-19T04:51:56.265Z,32.50
2018-12-19T04:52:59.050Z,29.00
2018-12-19T04:54:01.882Z,29.00
2018-12-19T04:55:04.690Z,30.00
2018-12-19T04:56:07.553Z,26.00
2018-12-19T04:57:10.821Z,25.00
2018-12-19T04:58:13.617Z,28.50
2018-12-19T04:59:16.427Z,30.00
2018-12-19T05:00:19.248Z,26.00
2018-12-19T05:01:22.073Z,25.50
2018-12-19T05:02:24.868Z,29.00
2018-12-19T05:03:27.942Z,27.50
2018-12-19T05:04:30.797Z,27.50
2018-12-19T05:05:33.588Z,20.00
2018-12-19T05:06:36.400Z,27.50
2018-12-19T05:07:39.340Z,26.50
2018-12-19T05:08:42.195Z,25.50
2018-12-19T05:09:45.765Z,27.00
2018-12-19T05:10:48.581Z,26.00
2018-12-19T05:11:51.418Z,30.50
2018-12-19T05:12:54.226Z,26.50
2018-12-19T05:13:57.453Z,29.00
2018-12-19T05:15:01.290Z,24.00
2018-12-19T05:16:04.373Z,27.00
2018-12-19T05:17:08.203Z,27.00
2018-12-19T05:18:10.988Z,36.50
2018-12-19T05:19:13.772Z,34.00
2018-12-19T05:20:16.647Z,31.00
2018-12-19T05:21:19.447Z,29.00
2018-12-19T05:22:22.631Z,34.00
2018-12-19T05:23:25.497Z,27.00
2018-12-19T05:24:28.322Z,34.00
2018-12-19T05:25:31.855Z,28.00
2018-12-19T05:26:34.645Z,31.00
2018-12-19T05:27:37.499Z,30.00
2018-12-19T05:28:40.704Z,33.50
2018-12-19T05:29:43.476Z,32.50
2018-12-19T05:30:46.278Z,35.00
2018-12-19T05:31:49.093Z,30.50
2018-12-19T05:32:51.887Z,27.00
2018-12-19T05:33:54.662Z,30.50
2018-12-19T05:34:57.973Z,29.00
2018-12-19T05:36:00.800Z,37.00
2018-12-19T05:37:03.726Z,30.00
2018-12-19T05:38:06.602Z,33.00
2018-12-19T05:39:09.524Z,27.50
2018-12-19T05:40:18.606Z,30.50
2018-12-19T05:41:17.126Z,43.50
2018-12-19T05:42:19.983Z,33.50
2018-12-19T05:43:23.468Z,33.00
2018-12-19T05:44:26.277Z,30.50
2018-12-19T05:45:29.108Z,30.00
2018-12-19T05:46:31.848Z,31.50
2018-12-19T05:47:35.385Z,29.50
2018-12-19T05:48:39.935Z,31.00
2018-12-19T05:49:43.482Z,33.50
2018-12-19T05:50:46.740Z,38.00
2018-12-19T05:51:50.237Z,28.00
2018-12-19T05:52:53.273Z,38.50
2018-12-19T05:53:56.569Z,34.50
2018-12-19T05:55:00.263Z,31.00
2018-12-19T05:56:03.498Z,35.00
2018-12-19T05:57:06.696Z,31.50
2018-12-19T05:58:09.995Z,39.00
2018-12-19T05:59:12.850Z,34.50
2018-12-19T06:00:15.693Z,36.50
2018-12-19T06:01:18.850Z,25.50
2018-12-19T06:02:21.806Z,40.00
2018-12-19T06:03:24.656Z,34.00
2018-12-19T06:04:27.848Z,42.00
2018-12-19T06:05:30.663Z,33.00
2018-12-19T06:06:33.713Z,30.00
2018-12-19T06:07:36.493Z,29.50
2018-12-19T06:08:40.256Z,34.00
2018-12-19T06:09:43.036Z,27.00
2018-12-19T06:10:46.534Z,31.50
2018-12-19T06:11:50.760Z,31.00
2018-12-19T06:12:53.560Z,37.50
2018-12-19T06:13:56.323Z,35.00
2018-12-19T06:15:00.933Z,37.50
2018-12-19T06:16:03.747Z,32.00
2018-12-19T06:17:07.213Z,27.00
2018-12-19T06:18:10.743Z,36.50
2018-12-19T06:19:13.580Z,28.00
2018-12-19T06:20:16.427Z,31.50
2018-12-19T06:21:21.594Z,30.00
2018-12-19T06:22:24.372Z,35.00
2018-12-19T06:23:27.505Z,34.50
2018-12-19T06:24:32.881Z,39.50
2018-12-19T06:25:35.803Z,48.00
2018-12-19T06:26:38.633Z,37.00
2018-12-19T06:27:41.441Z,40.50
2018-12-19T06:28:45.246Z,42.00
2018-12-19T06:29:48.444Z,41.00
2018-12-19T06:44:58.332Z,43.25
2018-12-19T06:46:01.133Z,38.25
2018-12-19T06:47:06.088Z,39.25
2018-12-19T06:48:10.429Z,31.25
2018-12-19T06:49:13.695Z,36.25
2018-12-19T06:50:16.503Z,30.50
2018-12-19T06:51:19.654Z,39.00
2018-12-19T06:52:22.587Z,32.00
2018-12-19T06:53:26.441Z,37.50
2018-12-19T06:54:31.276Z,41.00
2018-12-19T06:55:34.455Z,36.00
2018-12-19T06:56:40.014Z,35.50
2018-12-19T06:57:42.856Z,30.00
2018-12-19T06:58:46.171Z,29.50
2018-12-19T06:59:50.119Z,28.50
2018-12-19T07:00:54.054Z,38.00
2018-12-19T07:01:58.293Z,36.00
2018-12-19T07:03:02.655Z,34.50
2018-12-19T07:04:07.143Z,35.00
2018-12-19T07:05:09.939Z,35.00
2018-12-19T07:06:12.766Z,37.50
2018-12-19T07:07:16.447Z,30.50
2018-12-19T07:08:20.390Z,29.00
2018-12-19T07:09:27.194Z,27.50
2018-12-19T07:10:38.958Z,35.00
2018-12-19T07:11:37.576Z,41.00
2018-12-19T07:12:41.272Z,33.50
2018-12-19T07:13:44.097Z,37.50
2018-12-19T07:14:47.475Z,35.00
2018-12-19T07:15:50.281Z,26.50
2018-12-19T07:16:53.370Z,31.50
2018-12-19T07:17:57.395Z,40.00
2018-12-19T07:19:00.294Z,36.00
2018-12-19T07:20:03.658Z,30.00
2018-12-19T07:21:06.883Z,30.50
2018-12-19T07:22:09.828Z,28.00
2018-12-19T07:23:12.633Z,30.00
2018-12-19T07:24:15.424Z,32.50
2018-12-19T07:25:18.320Z,29.00
2018-12-19T07:26:21.342Z,31.00
2018-12-19T07:27:24.490Z,27.00
2018-12-19T07:28:27.302Z,33.50
2018-12-19T07:29:31.749Z,37.50
2018-12-19T07:30:34.639Z,34.50
2018-12-19T07:31:37.569Z,28.50
2018-12-19T07:32:40.402Z,32.50
2018-12-19T07:33:43.675Z,28.00
2018-12-19T07:34:46.427Z,33.50
2018-12-19T07:35:50.916Z,29.00
2018-12-19T07:36:54.318Z,30.00
2018-12-19T07:37:57.766Z,32.00
2018-12-19T07:39:00.726Z,30.00
2018-12-19T07:40:04.036Z,29.50
2018-12-19T07:41:06.873Z,29.50
2018-12-19T07:42:09.701Z,34.50
2018-12-19T07:43:12.512Z,35.00
2018-12-19T07:44:16.885Z,39.50
2018-12-19T07:45:19.716Z,28.50
2018-12-19T07:46:24.260Z,39.00
2018-12-19T07:47:27.298Z,31.50
2018-12-19T07:48:30.817Z,29.50
2018-12-19T07:49:33.629Z,34.00
2018-12-19T07:50:36.602Z,27.00
2018-12-19T07:51:39.758Z,30.50
2018-12-19T07:52:43.127Z,31.00
2018-12-19T07:53:45.982Z,33.50
2018-12-19T07:54:48.758Z,30.50
2018-12-19T07:55:51.711Z,30.00
2018-12-19T07:56:54.499Z,32.50
2018-12-19T07:57:57.312Z,27.50
2018-12-19T07:59:00.424Z,36.50
2018-12-19T08:00:07.274Z,35.00
2018-12-19T08:01:11.887Z,40.00
2018-12-19T08:02:16.642Z,34.00
2018-12-19T08:03:19.443Z,32.00
2018-12-19T08:04:24.355Z,31.50
2018-12-19T08:05:27.535Z,31.50
2018-12-19T08:06:30.350Z,34.50
2018-12-19T08:07:34.605Z,37.00
2018-12-19T08:08:38.462Z,33.00
2018-12-19T08:09:42.171Z,42.50
2018-12-19T08:10:44.962Z,37.00
2018-12-19T08:11:48.331Z,35.50
2018-12-19T08:12:51.128Z,37.50
2018-12-19T08:13:54.007Z,33.50
2018-12-19T08:15:03.436Z,34.50
2018-12-19T08:16:07.302Z,28.50
2018-12-19T08:17:11.073Z,31.00
2018-12-19T08:18:14.005Z,44.00
2018-12-19T08:19:17.756Z,28.00
2018-12-19T08:20:21.561Z,29.50
2018-12-19T08:21:24.328Z,39.50
2018-12-19T08:22:27.676Z,37.00
2018-12-19T08:23:31.492Z,29.50
2018-12-19T08:24:34.251Z,31.50
2018-12-19T08:25:39.815Z,27.00
2018-12-19T08:26:42.593Z,32.00
2018-12-19T08:27:45.377Z,32.00
2018-12-19T08:28:48.297Z,32.00
2018-12-19T08:29:52.427Z,39.00
2018-12-19T08:30:55.218Z,36.50
2018-12-19T08:31:58.016Z,35.00
2018-12-19T08:33:00.883Z,31.00
2018-12-19T08:34:03.972Z,37.50
2018-12-19T08:35:06.813Z,33.50
2018-12-19T08:36:11.009Z,36.50
2018-12-19T08:37:13.838Z,31.50
2018-12-19T08:38:17.459Z,30.50
2018-12-19T08:39:20.446Z,34.00
2018-12-19T08:40:23.296Z,34.00
2018-12-19T08:41:26.071Z,34.00
2018-12-19T08:43:37.799Z,37.00
2018-12-19T08:44:41.196Z,29.00
2018-12-19T08:45:44.241Z,37.00
2018-12-19T08:46:47.064Z,34.00
2018-12-19T08:47:50.486Z,38.00
2018-12-19T08:48:53.775Z,39.75
2018-12-19T08:49:58.236Z,32.25
2018-12-19T08:51:01.097Z,33.75
2018-12-19T08:52:03.915Z,36.50
2018-12-19T08:53:07.389Z,34.25
2018-12-19T08:54:10.255Z,32.50
2018-12-19T08:55:14.550Z,33.25
2018-12-19T08:56:17.400Z,39.50
2018-12-19T08:57:20.248Z,34.25
2018-12-19T08:58:24.509Z,38.50
2018-12-19T08:59:28.320Z,39.00
2018-12-19T09:00:32.347Z,35.00
2018-12-19T09:01:35.599Z,35.50
2018-12-19T09:02:38.430Z,38.00
2018-12-19T09:03:41.373Z,35.00
2018-12-19T09:04:45.646Z,40.50
2018-12-19T09:05:48.689Z,35.00
2018-12-19T09:06:51.519Z,27.00
2018-12-19T09:07:54.804Z,31.50
2018-12-19T09:08:58.071Z,39.00
2018-12-19T09:10:01.022Z,39.00
2018-12-19T09:11:05.820Z,35.00
2018-12-19T09:12:09.678Z,36.00
2018-12-19T09:13:12.467Z,37.00
2018-12-19T09:14:16.275Z,35.00
2018-12-19T09:15:27.635Z,33.00
2018-12-19T09:16:28.585Z,39.00
2018-12-19T09:17:31.741Z,33.50
2018-12-19T09:18:35.552Z,40.00
2018-12-19T09:19:38.795Z,34.50
2018-12-19T09:20:43.153Z,34.50
2018-12-19T09:21:45.990Z,38.75
2018-12-19T09:22:49.375Z,36.00
2018-12-19T09:23:53.328Z,35.00
2018-12-19T09:24:56.213Z,38.00
2018-12-19T09:25:59.043Z,33.50
2018-12-19T09:27:02.260Z,34.75
2018-12-19T09:28:05.095Z,31.75
2018-12-19T09:29:08.630Z,34.25
2018-12-19T09:30:12.832Z,30.75
2018-12-19T09:31:16.629Z,39.25
2018-12-19T09:32:19.591Z,35.00
2018-12-19T09:33:27.354Z,31.25
2018-12-19T09:34:30.340Z,33.25
2018-12-19T09:35:33.704Z,32.50
2018-12-19T09:36:36.522Z,30.50
2018-12-19T09:37:39.383Z,27.75
2018-12-19T09:38:43.172Z,34.00
2018-12-19T09:39:46.398Z,34.00
2018-12-19T09:40:49.527Z,30.50
2018-12-19T09:41:53.266Z,28.00
2018-12-19T09:42:58.639Z,29.50
2018-12-19T09:44:02.286Z,33.50
2018-12-19T09:45:05.273Z,41.00
2018-12-19T09:46:09.437Z,34.75
2018-12-19T09:47:12.680Z,28.00
2018-12-19T09:48:15.626Z,34.75
2018-12-19T09:49:19.040Z,31.75
2018-12-19T09:50:21.779Z,31.25
2018-12-19T09:51:25.712Z,38.25
2018-12-19T09:52:29.842Z,29.75
2018-12-19T09:53:32.951Z,30.00
2018-12-19T09:54:35.904Z,33.50
2018-12-19T09:55:39.433Z,29.75
2018-12-19T09:56:42.204Z,37.75
2018-12-19T09:57:45.551Z,31.25
2018-12-19T09:58:48.960Z,30.75
2018-12-19T09:59:51.807Z,40.25
2018-12-19T10:00:55.181Z,37.50
2018-12-19T10:01:58.720Z,46.50
2018-12-19T10:03:02.469Z,45.25
2018-12-19T10:04:05.932Z,46.75
2018-12-19T10:05:10.519Z,45.25
2018-12-19T10:06:13.354Z,40.75
2018-12-19T10:07:16.313Z,43.75
2018-12-19T10:08:19.415Z,37.25
2018-12-19T10:09:22.453Z,35.25
2018-12-19T10:10:25.916Z,30.25
2018-12-19T10:11:32.620Z,29.25
2018-12-19T10:12:36.138Z,34.75
2018-12-19T10:13:39.262Z,33.25
2018-12-19T10:14:42.109Z,34.75
2018-12-19T10:15:48.595Z,35.50
2018-12-19T10:16:51.737Z,24.75
2018-12-19T10:17:54.865Z,30.75
2018-12-19T10:18:58.371Z,36.25
2018-12-19T10:20:01.323Z,32.75
2018-12-19T10:21:04.626Z,32.25
2018-12-19T10:22:08.074Z,35.75
2018-12-19T10:23:10.872Z,34.00
2018-12-19T10:24:14.965Z,34.00
2018-12-19T10:25:17.805Z,30.50
2018-12-19T10:26:21.552Z,32.00
2018-12-19T10:27:24.503Z,34.25
2018-12-19T10:28:32.289Z,28.50
2018-12-19T10:29:35.119Z,34.75
2018-12-19T10:30:43.433Z,28.75
2018-12-19T10:31:46.391Z,28.75
2018-12-19T10:32:53.202Z,32.00
2018-12-19T10:33:55.933Z,21.75
2018-12-19T10:34:58.826Z,29.00
2018-12-19T10:36:01.799Z,30.50
2018-12-19T10:37:05.154Z,31.75
2018-12-19T10:38:08.011Z,29.25
2018-12-19T10:39:11.409Z,29.00
2018-12-19T10:40:15.346Z,27.50
2018-12-19T10:41:18.335Z,31.75
2018-12-19T10:42:21.156Z,30.00
2018-12-19T10:43:24.299Z,23.00
2018-12-19T10:44:27.274Z,30.50
2018-12-19T10:45:30.226Z,25.00
2018-12-19T10:46:33.425Z,26.50
2018-12-19T10:47:36.373Z,25.25
2018-12-19T10:48:39.263Z,28.50
2018-12-19T10:49:42.692Z,29.25
2018-12-19T10:50:46.115Z,29.00
2018-12-19T10:51:49.055Z,29.25
2018-12-19T10:52:51.956Z,25.25
2018-12-19T10:53:55.084Z,25.75
2018-12-19T10:54:58.554Z,28.00
2018-12-19T10:56:03.627Z,26.00
2018-12-19T10:57:06.421Z,31.25
2018-12-19T10:58:09.271Z,26.00
2018-12-19T10:59:12.643Z,24.50
2018-12-19T11:00:20.500Z,20.00
2018-12-19T11:01:24.883Z,24.75
2018-12-19T11:02:27.759Z,23.75
2018-12-19T11:03:30.615Z,27.50
2018-12-19T11:04:33.583Z,21.00
2018-12-19T11:05:36.597Z,23.00
2018-12-19T11:06:40.538Z,23.50
2018-12-19T11:07:45.527Z,23.00
2018-12-19T11:08:49.516Z,23.00
2018-12-19T11:09:52.543Z,23.50
2018-12-19T11:10:55.612Z,24.00
2018-12-19T11:11:58.506Z,30.00
2018-12-19T11:13:01.645Z,26.75
2018-12-19T11:14:05.826Z,25.25
2018-12-19T11:15:12.438Z,28.75
2018-12-19T11:16:17.274Z,29.25
2018-12-19T11:17:23.498Z,19.00
2018-12-19T11:18:28.864Z,22.00
2018-12-19T11:19:31.847Z,22.50
2018-12-19T11:20:34.810Z,23.00
2018-12-19T11:21:37.723Z,30.50
2018-12-19T11:22:40.916Z,24.25
2018-12-19T11:23:46.148Z,23.50
2018-12-19T11:24:49.114Z,22.00
2018-12-19T11:25:52.319Z,21.75
2018-12-19T11:26:55.425Z,23.25
2018-12-19T11:27:58.290Z,29.25
2018-12-19T11:29:01.199Z,26.75
2018-12-19T11:42:56.580Z,24.50
2018-12-19T11:45:12.236Z,26.25
2018-12-19T11:46:15.362Z,27.75
2018-12-19T11:47:18.430Z,26.50
2018-12-19T11:48:21.605Z,30.00
2018-12-19T11:49:24.507Z,25.25
2018-12-19T11:50:28.255Z,23.75
2018-12-19T11:51:31.880Z,24.25
2018-12-19T11:52:34.734Z,27.25
2018-12-19T11:53:37.691Z,29.25
2018-12-19T11:54:41.262Z,23.25
2018-12-19T11:55:44.158Z,24.50
2018-12-19T11:56:47.089Z,22.00
2018-12-19T11:57:50.700Z,22.00
2018-12-19T11:58:55.567Z,20.50
2018-12-19T12:00:00.230Z,23.50
2018-12-19T12:01:04.122Z,27.75
2018-12-19T12:02:07.257Z,26.00
2018-12-19T12:03:10.854Z,25.50
2018-12-19T12:04:14.531Z,30.50
2018-12-19T12:05:18.959Z,26.50
2018-12-19T12:06:22.155Z,19.75
2018-12-19T12:07:26.021Z,25.25
2018-12-19T12:08:29.036Z,28.50
2018-12-19T12:09:32.872Z,19.00
2018-12-19T12:10:36.976Z,31.50
2018-12-19T12:11:45.634Z,22.00
2018-12-19T12:12:45.570Z,24.00
2018-12-19T12:13:49.379Z,25.25
2018-12-19T12:14:52.219Z,23.75
2018-12-19T12:15:57.269Z,22.50
2018-12-19T12:17:01.996Z,20.00
2018-12-19T12:18:05.624Z,19.50
2018-12-19T12:19:11.287Z,25.50
2018-12-19T12:20:17.397Z,29.25
2018-12-19T12:21:20.615Z,22.25
2018-12-19T12:22:23.514Z,24.00
2018-12-19T12:23:27.476Z,24.75
2018-12-19T12:24:30.324Z,27.00
2018-12-19T12:25:33.655Z,25.00
2018-12-19T12:26:37.265Z,30.25
2018-12-19T12:27:40.293Z,23.75
2018-12-19T12:28:43.150Z,22.50
2018-12-19T12:29:46.949Z,21.25
2018-12-19T12:30:49.851Z,20.25
2018-12-19T12:31:52.791Z,26.00
2018-12-19T12:32:55.775Z,27.25
2018-12-19T12:33:58.598Z,26.25
2018-12-19T12:35:01.426Z,19.25
2018-12-19T12:36:04.701Z,21.00
2018-12-19T12:37:08.068Z,28.25
2018-12-19T12:38:10.938Z,28.00
2018-12-19T12:39:13.823Z,22.00
2018-12-19T12:40:16.745Z,23.25
2018-12-19T12:41:20.428Z,23.50
2018-12-19T12:42:23.842Z,25.25
2018-12-19T12:43:27.504Z,21.75
2018-12-19T12:44:30.711Z,25.50
2018-12-19T12:45:34.459Z,21.00
2018-12-19T12:46:37.527Z,21.75
2018-12-19T12:47:40.616Z,21.50
2018-12-19T12:48:43.753Z,22.00
2018-12-19T12:49:46.691Z,25.50
2018-12-19T12:50:51.616Z,25.00
2018-12-19T12:51:55.400Z,24.25
2018-12-19T12:52:59.630Z,20.75
2018-12-19T12:54:02.732Z,26.75
2018-12-19T12:55:06.998Z,21.50
2018-12-19T12:56:09.922Z,27.00
2018-12-19T12:57:12.837Z,24.00
2018-12-19T12:58:18.647Z,20.25
2018-12-19T12:59:22.625Z,23.00
2018-12-19T13:00:25.631Z,22.50
2018-12-19T13:01:29.674Z,19.75
2018-12-19T13:02:33.717Z,20.25
2018-12-19T13:03:37.127Z,18.25
2018-12-19T13:04:41.268Z,25.75
2018-12-19T13:05:44.483Z,17.75
2018-12-19T13:06:49.035Z,21.50
2018-12-19T13:07:53.265Z,21.00
2018-12-19T13:08:57.853Z,20.50
2018-12-19T13:10:01.489Z,21.25
2018-12-19T13:11:04.625Z,20.75
2018-12-19T13:12:08.332Z,19.00
2018-12-19T13:13:11.487Z,18.75
2018-12-19T13:14:14.702Z,19.00
2018-12-19T13:15:21.973Z,25.00
2018-12-19T13:16:24.844Z,23.00
2018-12-19T13:17:28.442Z,21.00
2018-12-19T13:18:31.454Z,24.75
2018-12-19T13:19:36.250Z,21.50
2018-12-19T13:20:40.418Z,20.25
2018-12-19T13:21:43.239Z,24.00
2018-12-19T13:22:46.112Z,20.00
2018-12-19T13:25:01.513Z,22.50
2018-12-19T13:26:04.698Z,18.00
2018-12-19T13:27:07.953Z,19.00
2018-12-19T13:28:11.437Z,18.25
2018-12-19T13:29:15.227Z,18.75
2018-12-19T13:30:19.267Z,19.25
2018-12-19T13:31:22.980Z,18.75
2018-12-19T13:32:25.896Z,16.25
2018-12-19T13:33:29.470Z,22.75
2018-12-19T13:34:32.630Z,22.25
2018-12-19T13:35:36.643Z,21.00
2018-12-19T13:36:40.483Z,18.75
2018-12-19T13:37:43.377Z,23.25
2018-12-19T13:38:46.326Z,22.00
2018-12-19T13:39:49.671Z,23.25
2018-12-19T13:40:52.514Z,20.00
2018-12-19T13:41:55.993Z,20.50
2018-12-19T13:42:58.902Z,21.00
2018-12-19T13:44:01.818Z,22.00
2018-12-19T13:45:04.682Z,14.50
2018-12-19T13:46:07.947Z,21.75
2018-12-19T13:47:10.799Z,17.00
2018-12-19T13:48:13.663Z,16.00
2018-12-19T13:49:16.773Z,15.50
2018-12-19T13:51:28.805Z,15.00
2018-12-19T13:52:32.148Z,18.00
2018-12-19T13:53:37.465Z,18.75
2018-12-19T13:54:40.519Z,14.50
2018-12-19T13:55:43.373Z,14.00
2018-12-19T13:56:46.217Z,22.25
2018-12-19T13:57:49.189Z,23.00
2018-12-19T13:58:52.468Z,16.50
2018-12-19T13:59:55.239Z,18.00
2018-12-19T14:00:59.709Z,16.50
2018-12-19T14:02:02.521Z,17.50
2018-12-19T14:03:05.461Z,18.50
2018-12-19T14:04:08.406Z,16.50
2018-12-19T14:05:12.168Z,16.00
2018-12-19T14:06:15.243Z,11.75
2018-12-19T14:07:18.268Z,17.00
2018-12-19T14:08:21.255Z,12.25
2018-12-19T14:09:26.273Z,18.00
2018-12-19T14:10:29.126Z,15.50
2018-12-19T14:11:32.252Z,18.50
2018-12-19T14:12:35.062Z,15.00
2018-12-19T14:13:38.246Z,13.25
2018-12-19T14:14:41.141Z,14.50
2018-12-19T14:15:43.976Z,10.75
2018-12-19T14:16:47.518Z,19.75